createdAt,value
2022-08-23T00:01:21.792Z,101305.06
2022-08-23T00:03:53.550Z,101303.56
2022-08-23T00:06:23.372Z,101308.03
2022-08-23T00:08:52.828Z,101312.38
2022-08-23T00:11:30.088Z,101309.59
2022-08-23T00:13:59.931Z,101309.44
2022-08-23T00:16:29.746Z,101311.22
2022-08-23T00:18:57.955Z,101308.03
2022-08-23T00:21:26.220Z,101312.31
2022-08-23T00:23:54.229Z,101306.81
2022-08-23T00:26:22.403Z,101314.13
2022-08-23T00:28:50.972Z,101315.00
2022-08-23T00:31:19.898Z,101310.47
2022-08-23T00:33:49.261Z,101313.25
2022-08-23T00:36:17.283Z,101300.88
2022-08-23T00:38:45.308Z,101310.81
2022-08-23T00:41:13.334Z,101307.22
2022-08-23T00:44:00.676Z,101312.47
2022-08-23T00:47:04.150Z,101305.31
2022-08-23T00:49:36.192Z,101308.44
2022-08-23T00:52:09.942Z,101305.75
2022-08-23T00:54:41.308Z,101309.75
2022-08-23T00:57:14.328Z,101312.44
2022-08-23T00:59:43.093Z,101314.47
2022-08-23T01:02:11.470Z,101310.03
2022-08-23T01:04:45.483Z,101312.72
2022-08-23T01:07:22.176Z,101307.50
2022-08-23T01:09:52.690Z,101293.09
2022-08-23T01:12:32.567Z,101314.38
2022-08-23T01:15:05.045Z,101310.09
2022-08-23T01:17:39.709Z,101316.88
2022-08-23T01:20:13.758Z,101306.25
2022-08-23T01:22:49.209Z,101315.47
2022-08-23T01:25:22.495Z,101308.66
2022-08-23T01:27:51.209Z,101308.56
2022-08-23T01:30:22.028Z,101320.09
2022-08-23T01:32:53.312Z,101318.09
2022-08-23T01:35:28.198Z,101309.69
2022-08-23T01:37:56.360Z,101306.97
2022-08-23T01:40:25.849Z,101313.50
2022-08-23T01:42:54.391Z,101314.41
2022-08-23T01:45:22.537Z,101312.56
2022-08-23T01:47:50.578Z,101318.72
2022-08-23T01:50:18.937Z,101310.41
2022-08-23T01:52:47.563Z,101312.31
2022-08-23T01:55:15.986Z,101314.31
2022-08-23T01:57:49.449Z,101316.03
2022-08-23T02:00:18.745Z,101318.69
2022-08-23T02:02:47.182Z,101315.97
2022-08-23T02:05:17.415Z,101304.63
2022-08-23T02:07:47.561Z,101319.53
2022-08-23T02:10:16.220Z,101317.00
2022-08-23T02:12:46.728Z,101311.53
2022-08-23T02:15:16.097Z,101318.72
2022-08-23T02:17:46.591Z,101311.63
2022-08-23T02:20:15.230Z,101307.06
2022-08-23T02:22:43.723Z,101308.28
2022-08-23T02:25:11.734Z,101306.53
2022-08-23T02:27:42.909Z,101308.44
2022-08-23T02:30:15.222Z,101306.84
2022-08-23T02:32:43.974Z,101303.91
2022-08-23T02:35:12.036Z,101301.47
2022-08-23T02:37:40.081Z,101312.44
2022-08-23T02:40:09.470Z,101311.41
2022-08-23T02:42:37.609Z,101314.00
2022-08-23T02:45:08.321Z,101309.91
2022-08-23T02:47:39.065Z,101306.38
2022-08-23T02:50:08.818Z,101309.09
2022-08-23T02:52:37.245Z,101311.00
2022-08-23T02:55:06.013Z,101307.38
2022-08-23T02:57:34.024Z,101314.50
2022-08-23T03:00:02.070Z,101308.06
2022-08-23T03:02:31.429Z,101315.38
2022-08-23T03:05:00.935Z,101318.84
2022-08-23T03:07:29.116Z,101318.00
2022-08-23T03:09:57.094Z,101315.47
2022-08-23T03:12:25.397Z,101301.88
2022-08-23T03:14:53.477Z,101325.44
2022-08-23T03:17:21.681Z,101324.69
2022-08-23T03:19:50.004Z,101309.72
2022-08-23T03:22:19.540Z,101330.13
2022-08-23T03:24:47.691Z,101323.78
2022-08-23T03:27:15.886Z,101329.25
2022-08-23T03:29:43.944Z,101327.50
2022-08-23T03:32:12.029Z,101332.09
2022-08-23T03:34:43.735Z,101327.50
2022-08-23T03:37:11.929Z,101340.38
2022-08-23T03:39:41.646Z,101337.06
2022-08-23T03:42:10.037Z,101341.78
2022-08-23T03:44:38.076Z,101342.63
2022-08-23T03:47:06.655Z,101342.91
2022-08-23T03:49:34.862Z,101350.38
2022-08-23T03:52:05.841Z,101343.22
2022-08-23T03:54:34.237Z,101344.00
2022-08-23T03:57:07.224Z,101339.59
2022-08-23T03:59:39.082Z,101348.53
2022-08-23T04:02:07.736Z,101348.72
2022-08-23T04:04:36.757Z,101350.47
2022-08-23T04:07:04.874Z,101360.38
2022-08-23T04:09:32.965Z,101358.69
2022-08-23T04:12:00.977Z,101357.13
2022-08-23T04:14:30.429Z,101351.94
2022-08-23T04:16:58.452Z,101356.38
2022-08-23T04:19:26.459Z,101357.34
2022-08-23T04:21:56.670Z,101359.25
2022-08-23T04:24:25.201Z,101359.09
2022-08-23T04:26:53.212Z,101359.00
2022-08-23T04:29:33.720Z,101362.53
2022-08-23T04:32:05.517Z,101372.56
2022-08-23T04:34:36.432Z,101375.94
2022-08-23T04:37:04.572Z,101379.25
2022-08-23T04:39:58.685Z,101379.25
2022-08-23T04:42:26.307Z,101379.00
2022-08-23T04:44:54.324Z,101379.16
2022-08-23T04:47:23.944Z,101385.53
2022-08-23T04:49:51.989Z,101380.69
2022-08-23T04:52:20.071Z,101388.06
2022-08-23T04:54:48.186Z,101383.38
2022-08-23T04:57:16.832Z,101387.69
2022-08-23T04:59:45.037Z,101371.72
2022-08-23T05:02:13.207Z,101391.72
2022-08-23T05:04:42.603Z,101392.22
2022-08-23T05:07:10.884Z,101391.91
2022-08-23T05:09:38.947Z,101394.38
2022-08-23T05:12:07.370Z,101409.47
2022-08-23T05:14:35.356Z,101413.84
2022-08-23T05:17:03.477Z,101403.69
2022-08-23T05:19:32.726Z,101398.19
2022-08-23T05:22:02.296Z,101392.16
2022-08-23T05:24:30.477Z,101404.53
2022-08-23T05:27:00.488Z,101407.88
2022-08-23T05:29:28.542Z,101406.84
2022-08-23T05:31:57.115Z,101409.16
2022-08-23T05:34:25.538Z,101406.13
2022-08-23T05:36:55.673Z,101409.06
2022-08-23T05:39:35.798Z,101419.44
2022-08-23T05:42:05.680Z,101412.00
2022-08-23T05:44:36.168Z,101412.81
2022-08-23T05:47:10.503Z,101418.97
2022-08-23T05:49:40.700Z,101412.38
2022-08-23T05:52:12.074Z,101412.91
2022-08-23T05:54:42.034Z,101413.56
2022-08-23T05:57:11.941Z,101418.69
2022-08-23T05:59:41.807Z,101420.91
2022-08-23T06:02:10.641Z,101422.66
2022-08-23T06:04:38.694Z,101425.28
2022-08-23T06:07:06.916Z,101421.81
2022-08-23T06:09:35.065Z,101424.41
2022-08-23T06:12:05.124Z,101428.00
2022-08-23T06:14:33.164Z,101434.34
2022-08-23T06:17:01.235Z,101436.66
2022-08-23T06:19:29.282Z,101432.09
2022-08-23T06:21:57.277Z,101432.63
2022-08-23T06:24:26.610Z,101435.94
2022-08-23T06:26:55.106Z,101439.44
2022-08-23T06:29:24.553Z,101437.50
2022-08-23T06:31:54.124Z,101441.88
2022-08-23T06:34:25.566Z,101430.03
2022-08-23T06:36:56.546Z,101441.34
2022-08-23T06:39:25.994Z,101440.31
2022-08-23T06:41:54.505Z,101439.34
2022-08-23T06:44:23.944Z,101439.44
2022-08-23T06:46:51.972Z,101439.53
2022-08-23T06:49:20.027Z,101438.63
2022-08-23T06:51:52.296Z,101445.09
2022-08-23T06:54:23.012Z,101442.56
2022-08-23T06:56:55.095Z,101409.38
2022-08-23T06:59:24.611Z,101441.16
2022-08-23T07:01:55.397Z,101441.16
2022-08-23T07:04:27.250Z,101445.44
2022-08-23T07:06:55.705Z,101439.44
2022-08-23T07:09:24.451Z,101442.63
2022-08-23T07:11:52.812Z,101440.44
2022-08-23T07:14:22.639Z,101439.50
2022-08-23T07:16:54.134Z,101443.31
2022-08-23T07:19:28.881Z,101450.78
2022-08-23T07:21:58.078Z,101456.47
2022-08-23T07:24:32.322Z,101441.13
2022-08-23T07:27:06.278Z,101453.50
2022-08-23T07:29:35.981Z,101454.00
2022-08-23T07:32:06.649Z,101460.22
2022-08-23T07:34:34.752Z,101456.38
2022-08-23T07:37:02.837Z,101456.28
2022-08-23T07:39:31.743Z,101460.34
2022-08-23T07:42:01.071Z,101456.91
2022-08-23T07:44:30.012Z,101460.47
2022-08-23T07:46:59.012Z,101456.31
2022-08-23T07:49:30.352Z,101453.94
2022-08-23T07:51:59.867Z,101453.94
2022-08-23T07:54:29.019Z,101462.56
2022-08-23T07:56:57.047Z,101459.34
2022-08-23T07:59:25.057Z,101461.78
2022-08-23T08:01:53.303Z,101463.72
2022-08-23T08:04:21.483Z,101460.50
2022-08-23T08:07:10.384Z,101442.47
2022-08-23T08:09:40.487Z,101462.72
2022-08-23T08:12:08.962Z,101459.19
2022-08-23T08:14:37.331Z,101464.09
2022-08-23T08:17:06.908Z,101463.13
2022-08-23T08:19:35.301Z,101458.72
2022-08-23T08:22:04.801Z,101459.63
2022-08-23T08:24:32.859Z,101470.84
2022-08-23T08:27:00.993Z,101465.88
2022-08-23T08:29:29.026Z,101474.81
2022-08-23T08:31:57.125Z,101471.50
2022-08-23T08:34:25.754Z,101457.03
2022-08-23T08:36:56.225Z,101470.31
2022-08-23T08:39:29.972Z,101469.91
2022-08-23T08:42:26.290Z,101460.97
2022-08-23T08:44:57.613Z,101463.94
2022-08-23T08:47:32.185Z,101469.84
2022-08-23T08:50:06.918Z,101467.56
2022-08-23T08:52:41.244Z,101480.75
2022-08-23T08:55:14.945Z,101481.41
2022-08-23T08:57:47.343Z,101484.00
2022-08-23T09:00:19.177Z,101491.63
2022-08-23T09:02:47.906Z,101481.50
2022-08-23T09:05:19.845Z,101480.66
2022-08-23T09:08:01.027Z,101475.53
2022-08-23T09:10:52.265Z,101478.91
2022-08-23T09:13:53.695Z,101477.03
2022-08-23T09:16:33.659Z,101472.38
2022-08-23T09:19:03.362Z,101473.84
2022-08-23T09:21:42.408Z,101471.44
2022-08-23T09:24:10.462Z,101472.19
2022-08-23T09:26:40.022Z,101470.75
2022-08-23T09:29:26.066Z,101464.56
2022-08-23T09:31:58.449Z,101460.63
2022-08-23T09:34:42.760Z,101460.47
2022-08-23T09:37:18.726Z,101442.06
2022-08-23T09:39:50.761Z,101461.31
2022-08-23T09:42:32.769Z,101467.06
2022-08-23T09:45:01.195Z,101463.13
2022-08-23T09:47:36.825Z,101466.59
2022-08-23T09:50:18.969Z,101457.91
2022-08-23T09:52:49.018Z,101458.03
2022-08-23T09:55:29.688Z,101454.00
2022-08-23T09:58:00.928Z,101451.44
2022-08-23T10:00:31.143Z,101452.09
2022-08-23T10:03:22.445Z,101441.81
2022-08-23T10:05:52.677Z,101435.13
2022-08-23T10:08:27.407Z,101439.22
2022-08-23T10:10:59.689Z,101438.34
2022-08-23T10:13:30.066Z,101440.53
2022-08-23T10:16:10.243Z,101441.63
2022-08-23T10:18:52.372Z,101440.78
2022-08-23T10:21:26.211Z,101431.13
2022-08-23T10:24:24.104Z,101434.50
2022-08-23T10:27:27.220Z,101430.06
2022-08-23T10:30:05.394Z,101432.66
2022-08-23T10:32:48.594Z,101425.56
2022-08-23T10:35:40.519Z,101424.97
2022-08-23T10:38:22.917Z,101424.25
2022-08-23T10:41:02.366Z,101416.81
2022-08-23T10:43:40.375Z,101416.78
2022-08-23T10:46:10.773Z,101428.97
2022-08-23T10:48:46.690Z,101420.53
2022-08-23T10:51:31.234Z,101434.66
2022-08-23T10:54:04.113Z,101436.31
2022-08-23T10:56:32.157Z,101418.19
2022-08-23T10:59:04.511Z,101420.78
2022-08-23T11:01:40.791Z,101420.91
2022-08-23T11:04:21.423Z,101428.09
2022-08-23T11:06:52.392Z,101409.34
2022-08-23T11:09:33.383Z,101411.09
2022-08-23T11:12:21.957Z,101417.78
2022-08-23T11:15:14.922Z,101416.78
2022-08-23T11:17:56.334Z,101416.50
2022-08-23T11:20:57.615Z,101418.94
2022-08-23T11:23:41.771Z,101406.00
2022-08-23T11:26:12.808Z,101404.28
2022-08-23T11:28:45.302Z,101403.81
2022-08-23T11:31:31.741Z,101400.59
2022-08-23T11:34:05.669Z,101398.34
2022-08-23T11:36:36.228Z,101404.91
2022-08-23T11:39:09.099Z,101404.56
2022-08-23T11:41:58.157Z,101400.97
2022-08-23T11:44:34.466Z,101408.28
2022-08-23T11:47:06.744Z,101405.56
2022-08-23T11:49:54.303Z,101397.97
2022-08-23T11:53:02.020Z,101402.25
2022-08-23T11:55:49.201Z,101409.31
2022-08-23T11:58:24.317Z,101413.81
2022-08-23T12:01:09.873Z,101399.63
2022-08-23T12:03:53.850Z,101407.16
2022-08-23T12:06:50.560Z,101401.56
2022-08-23T12:09:52.127Z,101391.09
2022-08-23T12:12:37.777Z,101399.63
2022-08-23T12:15:12.046Z,101393.38
2022-08-23T12:18:13.040Z,101384.88
2022-08-23T12:20:43.198Z,101394.00
2022-08-23T12:23:21.305Z,101396.72
2022-08-23T12:26:00.795Z,101400.78
2022-08-23T12:28:39.366Z,101398.50
2022-08-23T12:31:19.249Z,101403.28
2022-08-23T12:33:56.852Z,101399.34
2022-08-23T12:36:33.868Z,101397.13
2022-08-23T12:39:20.634Z,101387.47
2022-08-23T12:41:56.442Z,101389.31
2022-08-23T12:44:30.538Z,101386.25
2022-08-23T12:47:13.579Z,101390.00
2022-08-23T12:49:41.999Z,101389.00
2022-08-23T12:52:12.590Z,101383.25
2022-08-23T12:54:43.515Z,101364.31
2022-08-23T12:57:32.187Z,101367.19
2022-08-23T13:00:24.618Z,101373.69
2022-08-23T13:02:58.446Z,101375.75
2022-08-23T13:05:35.336Z,101380.88
2022-08-23T13:08:09.508Z,101374.25
2022-08-23T13:10:41.935Z,101373.41
2022-08-23T13:13:13.322Z,101368.22
2022-08-23T13:15:45.056Z,101369.50
2022-08-23T13:18:25.230Z,101367.38
2022-08-23T13:21:18.187Z,101362.50
2022-08-23T13:23:47.870Z,101351.97
2022-08-23T13:26:40.803Z,101356.41
2022-08-23T13:29:13.660Z,101355.75
2022-08-23T13:32:02.528Z,101360.56
2022-08-23T13:34:38.871Z,101357.38
2022-08-23T13:37:18.820Z,101350.91
2022-08-23T13:39:49.859Z,101359.19
2022-08-23T13:42:32.929Z,101363.84
2022-08-23T13:45:09.016Z,101356.63
2022-08-23T13:47:37.829Z,101350.56
2022-08-23T13:50:11.537Z,101359.59
2022-08-23T13:53:03.220Z,101353.84
2022-08-23T13:55:30.947Z,101355.38
2022-08-23T13:58:00.756Z,101356.53
2022-08-23T14:00:28.802Z,101346.38
2022-08-23T14:02:56.971Z,101356.31
2022-08-23T14:05:25.154Z,101352.00
2022-08-23T14:07:53.726Z,101352.09
2022-08-23T14:10:23.692Z,101338.38
2022-08-23T14:12:54.599Z,101342.44
2022-08-23T14:15:54.504Z,101342.41
2022-08-23T14:18:12.493Z,101352.16
2022-08-23T14:20:45.649Z,101342.91
2022-08-23T14:23:14.190Z,101346.00
2022-08-23T14:25:42.438Z,101355.38
2022-08-23T14:28:10.499Z,101349.34
2022-08-23T14:30:40.074Z,101348.00
2022-08-23T14:33:11.042Z,101343.41
2022-08-23T14:35:41.941Z,101349.34
2022-08-23T14:38:10.813Z,101348.03
2022-08-23T14:40:38.862Z,101347.22
2022-08-23T14:43:07.345Z,101346.19
2022-08-23T14:45:35.368Z,101344.50
2022-08-23T14:48:05.464Z,101336.63
2022-08-23T14:50:34.690Z,101340.72
2022-08-23T14:53:05.410Z,101343.63
2022-08-23T14:55:33.569Z,101350.72
2022-08-23T14:58:01.605Z,101339.81
2022-08-23T15:00:29.641Z,101333.97
2022-08-23T15:02:57.929Z,101336.09
2022-08-23T15:05:27.455Z,101332.25
2022-08-23T15:07:55.505Z,101307.34
2022-08-23T15:13:25.823Z,101332.03
2022-08-23T15:15:55.417Z,101333.91
2022-08-23T15:18:23.933Z,101335.00
2022-08-23T15:20:53.468Z,101329.25
2022-08-23T15:23:21.700Z,101331.63
2022-08-23T15:25:50.136Z,101337.38
2022-08-23T15:28:21.455Z,101324.94
2022-08-23T15:30:50.442Z,101325.56
2022-08-23T15:33:21.334Z,101326.81
2022-08-23T15:35:55.239Z,101323.97
2022-08-23T15:38:25.827Z,101327.53
2022-08-23T15:40:55.316Z,101322.56
2022-08-23T15:43:33.896Z,101324.94
2022-08-23T15:46:07.887Z,101317.81
2022-08-23T15:48:38.515Z,101323.22
2022-08-23T15:51:08.091Z,101322.03
2022-08-23T15:53:39.255Z,101324.13
2022-08-23T15:56:10.744Z,101321.91
2022-08-23T15:58:39.812Z,101313.66
2022-08-23T16:01:07.957Z,101312.06
2022-08-23T16:03:36.912Z,101303.69
2022-08-23T16:06:07.352Z,101311.03
2022-08-23T16:08:38.309Z,101315.31
2022-08-23T16:11:12.144Z,101299.88
2022-08-23T16:13:42.711Z,101309.94
2022-08-23T16:16:16.987Z,101308.69
2022-08-23T16:18:45.419Z,101315.53
2022-08-23T16:21:16.797Z,101314.88
2022-08-23T16:23:45.131Z,101313.03
2022-08-23T16:26:16.380Z,101316.16
2022-08-23T16:28:45.840Z,101319.16
2022-08-23T16:31:14.636Z,101314.81
2022-08-23T16:33:43.746Z,101317.31
2022-08-23T16:36:17.835Z,101321.38
2022-08-23T16:38:46.334Z,101314.44
2022-08-23T16:41:14.564Z,101318.50
2022-08-23T16:43:42.967Z,101317.66
2022-08-23T16:46:11.717Z,101320.78
2022-08-23T16:48:39.784Z,101318.00
2022-08-23T16:51:07.912Z,101320.06
2022-08-23T16:53:37.407Z,101316.25
2022-08-23T16:56:06.760Z,101321.38
2022-08-23T16:58:35.429Z,101328.88
2022-08-23T17:01:03.615Z,101329.75
2022-08-23T17:03:32.077Z,101325.28
2022-08-23T17:06:00.121Z,101322.44
2022-08-23T17:08:28.436Z,101324.66
2022-08-23T17:11:02.524Z,101328.06
2022-08-23T17:13:47.966Z,101324.56
2022-08-23T17:16:16.116Z,101333.88
2022-08-23T17:18:44.198Z,101325.69
2022-08-23T17:21:12.261Z,101333.50
2022-08-23T17:23:40.751Z,101335.94
2022-08-23T17:26:10.908Z,101333.50
2022-08-23T17:28:38.944Z,101336.38
2022-08-23T17:31:07.173Z,101348.97
2022-08-23T17:33:35.242Z,101353.88
2022-08-23T17:36:03.345Z,101346.06
2022-08-23T17:38:31.422Z,101344.41
2022-08-23T17:41:01.171Z,101355.31
2022-08-23T17:43:30.532Z,101356.63
2022-08-23T17:45:58.615Z,101351.56
2022-08-23T17:48:28.845Z,101355.03
2022-08-23T17:50:56.864Z,101358.66
2022-08-23T17:53:24.845Z,101365.84
2022-08-23T17:55:52.877Z,101367.84
2022-08-23T17:58:20.958Z,101366.47
2022-08-23T18:00:52.230Z,101369.50
2022-08-23T18:03:20.342Z,101373.09
2022-08-23T18:05:48.953Z,101367.44
2022-08-23T18:08:17.012Z,101377.06
2022-08-23T18:10:45.036Z,101383.34
2022-08-23T18:13:13.055Z,101391.00
2022-08-23T18:15:41.069Z,101381.50
2022-08-23T18:18:10.490Z,101387.28
2022-08-23T18:20:38.517Z,101394.72
2022-08-23T18:23:06.576Z,101372.66
2022-08-23T18:25:34.840Z,101396.06
2022-08-23T18:28:09.128Z,101400.69
2022-08-23T18:30:45.575Z,101404.16
2022-08-23T18:33:15.672Z,101405.00
2022-08-23T18:35:44.314Z,101403.28
2022-08-23T18:38:13.591Z,101405.03
2022-08-23T18:40:46.177Z,101405.72
2022-08-23T18:43:16.809Z,101408.44
2022-08-23T18:45:45.709Z,101415.81
2022-08-23T18:48:15.516Z,101419.34
2022-08-23T18:50:43.669Z,101421.72
2022-08-23T18:53:12.484Z,101388.94
2022-08-23T18:55:41.285Z,101426.84
2022-08-23T18:58:09.737Z,101428.50
2022-08-23T19:00:39.199Z,101437.31
2022-08-23T19:03:08.022Z,101435.91
2022-08-23T19:05:41.632Z,101448.22
2022-08-23T19:08:11.372Z,101449.41
2022-08-23T19:10:41.487Z,101449.13
2022-08-23T19:13:10.518Z,101453.72
2022-08-23T19:15:40.578Z,101458.19
2022-08-23T19:18:08.824Z,101453.94
2022-08-23T19:20:39.089Z,101464.72
2022-08-23T19:23:07.504Z,101459.84
2022-08-23T19:25:37.641Z,101460.09
2022-08-23T19:28:06.397Z,101463.03
2022-08-23T19:30:34.523Z,101467.03
2022-08-23T19:33:02.944Z,101467.00
2022-08-23T19:35:31.512Z,101463.44
2022-08-23T19:38:00.980Z,101474.91
2022-08-23T19:40:29.054Z,101479.59
2022-08-23T19:42:59.730Z,101478.44
2022-08-23T19:45:32.161Z,101484.34
2022-08-23T19:48:00.734Z,101493.38
2022-08-23T19:50:29.285Z,101485.22
2022-08-23T19:52:57.438Z,101485.63
2022-08-23T19:55:28.578Z,101492.88
2022-08-23T19:57:57.806Z,101499.09
2022-08-23T20:00:27.454Z,101500.66
2022-08-23T20:02:55.491Z,101502.63
2022-08-23T20:05:23.950Z,101504.22
2022-08-23T20:07:52.369Z,101501.00
2022-08-23T20:10:21.208Z,101507.50
2022-08-23T20:12:50.766Z,101508.88
2022-08-23T20:15:19.026Z,101507.84
2022-08-23T20:17:47.143Z,101512.31
2022-08-23T20:20:15.281Z,101510.09
2022-08-23T20:23:05.870Z,101512.00
2022-08-23T20:25:33.994Z,101519.09
2022-08-23T20:28:08.226Z,101513.56
2022-08-23T20:30:37.532Z,101520.56
2022-08-23T20:33:05.589Z,101517.97
2022-08-23T20:35:33.677Z,101521.75
2022-08-23T20:38:03.138Z,101522.50
2022-08-23T20:40:31.372Z,101525.22
2022-08-23T20:42:59.413Z,101514.00
2022-08-23T20:45:28.837Z,101514.31
2022-08-23T20:47:56.822Z,101520.28
2022-08-23T20:50:25.256Z,101519.44
2022-08-23T20:52:54.948Z,101524.56
2022-08-23T20:55:24.057Z,101526.97
2022-08-23T20:57:52.121Z,101522.59
2022-08-23T21:00:20.143Z,101521.03
2022-08-23T21:02:49.557Z,101532.44
2022-08-23T21:05:17.803Z,101526.91
2022-08-23T21:07:46.111Z,101523.03
2022-08-23T21:10:14.573Z,101523.53
2022-08-23T21:12:42.627Z,101519.34
2022-08-23T21:15:11.806Z,101526.00
2022-08-23T21:17:40.061Z,101528.00
2022-08-23T21:20:10.125Z,101530.66
2022-08-23T21:22:38.455Z,101522.09
2022-08-23T21:25:07.299Z,101525.88
2022-08-23T21:27:35.662Z,101535.13
2022-08-23T21:30:03.865Z,101535.41
2022-08-23T21:32:31.961Z,101524.78
2022-08-23T21:35:00.592Z,101529.66
2022-08-23T21:37:30.233Z,101525.56
2022-08-23T21:39:58.305Z,101524.44
2022-08-23T21:42:26.397Z,101525.38
2022-08-23T21:44:54.634Z,101525.94
2022-08-23T21:47:23.001Z,101521.75
2022-08-23T21:49:51.047Z,101523.91
2022-08-23T21:52:19.074Z,101517.91
2022-08-23T21:54:48.512Z,101515.56
2022-08-23T21:57:16.868Z,101512.75
2022-08-23T21:59:44.843Z,101518.50
2022-08-23T22:02:13.032Z,101520.34
2022-08-23T22:04:41.170Z,101518.09
2022-08-23T22:07:09.223Z,101508.22
2022-08-23T22:09:37.643Z,101512.25
2022-08-23T22:12:09.779Z,101518.34
2022-08-23T22:14:38.069Z,101518.19
2022-08-23T22:17:06.976Z,101518.19
2022-08-23T22:19:35.088Z,101513.44
2022-08-23T22:22:03.188Z,101521.47
2022-08-23T22:24:31.530Z,101526.44
2022-08-23T22:26:59.545Z,101521.41
2022-08-23T22:29:29.009Z,101530.22
2022-08-23T22:31:57.327Z,101527.25
2022-08-23T22:34:25.374Z,101534.56
2022-08-23T22:36:55.536Z,101533.59
2022-08-23T22:39:23.887Z,101538.16
2022-08-23T22:41:52.085Z,101537.97
2022-08-23T22:44:20.115Z,101536.66
2022-08-23T22:46:49.525Z,101545.25
2022-08-23T22:49:17.841Z,101532.84
2022-08-23T22:51:45.860Z,101533.66
2022-08-23T22:54:17.111Z,101536.38
2022-08-23T22:56:47.091Z,101547.34
2022-08-23T22:59:16.734Z,101540.97
2022-08-23T23:01:47.734Z,101541.06
2022-08-23T23:04:20.489Z,101537.81
2022-08-23T23:06:49.101Z,101537.31
2022-08-23T23:09:17.750Z,101536.72
2022-08-23T23:11:46.588Z,101535.75
2022-08-23T23:14:15.720Z,101537.03
2022-08-23T23:16:44.854Z,101534.31
2022-08-23T23:19:30.815Z,101535.75
2022-08-23T23:22:01.384Z,101540.41
2022-08-23T23:24:32.132Z,101538.00
2022-08-23T23:27:02.398Z,101520.75
2022-08-23T23:29:31.631Z,101535.28
2022-08-23T23:31:59.872Z,101530.22
2022-08-23T23:34:28.892Z,101523.31
2022-08-23T23:36:57.696Z,101540.00
2022-08-23T23:39:27.956Z,101545.72
2022-08-23T23:41:56.924Z,101545.56
2022-08-23T23:44:31.000Z,101548.28
2022-08-23T23:47:00.625Z,101548.97
2022-08-23T23:49:32.650Z,101545.56
2022-08-23T23:52:02.593Z,101544.22
2022-08-23T23:54:33.697Z,101553.09
2022-08-23T23:57:01.789Z,101549.75
2022-08-23T23:59:29.993Z,101542.84
